sensor_id;sensor_type;location;lat;lon;timestamp;P1;durP1;ratioP1;P2;durP2;ratioP2
23187;SDS011;11762;59.878;17.686;2023-03-16T00:00:00;1.60;;;0.53;;
23187;SDS011;11762;59.878;17.686;2023-03-16T00:02:27;1.80;;;0.57;;
23187;SDS011;11762;59.878;17.686;2023-03-16T00:04:54;1.00;;;0.40;;
23187;SDS011;11762;59.878;17.686;2023-03-16T00:07:22;1.67;;;0.53;;
23187;SDS011;11762;59.878;17.686;2023-03-16T00:09:50;1.40;;;0.40;;
23187;SDS011;11762;59.878;17.686;2023-03-16T00:12:17;1.37;;;0.47;;
23187;SDS011;11762;59.878;17.686;2023-03-16T00:14:47;2.83;;;0.83;;
23187;SDS011;11762;59.878;17.686;2023-03-16T00:17:15;1.03;;;0.40;;
23187;SDS011;11762;59.878;17.686;2023-03-16T00:19:44;1.03;;;0.30;;
23187;SDS011;11762;59.878;17.686;2023-03-16T00:22:12;0.63;;;0.20;;
23187;SDS011;11762;59.878;17.686;2023-03-16T00:24:41;2.13;;;0.53;;
23187;SDS011;11762;59.878;17.686;2023-03-16T00:27:09;2.97;;;0.53;;
23187;SDS011;11762;59.878;17.686;2023-03-16T00:29:39;1.17;;;0.60;;
23187;SDS011;11762;59.878;17.686;2023-03-16T00:32:11;1.70;;;0.60;;
23187;SDS011;11762;59.878;17.686;2023-03-16T00:34:40;1.07;;;0.40;;
23187;SDS011;11762;59.878;17.686;2023-03-16T00:37:07;2.50;;;0.50;;
23187;SDS011;11762;59.878;17.686;2023-03-16T00:39:34;2.83;;;0.67;;
23187;SDS011;11762;59.878;17.686;2023-03-16T00:42:03;1.40;;;0.40;;
23187;SDS011;11762;59.878;17.686;2023-03-16T00:44:30;1.27;;;0.50;;
23187;SDS011;11762;59.878;17.686;2023-03-16T00:46:57;2.80;;;0.40;;
23187;SDS011;11762;59.878;17.686;2023-03-16T00:49:25;3.40;;;0.40;;
23187;SDS011;11762;59.878;17.686;2023-03-16T00:51:52;1.37;;;0.20;;
23187;SDS011;11762;59.878;17.686;2023-03-16T00:54:19;1.93;;;0.40;;
23187;SDS011;11762;59.878;17.686;2023-03-16T06:39:23;4.30;;;1.43;;
23187;SDS011;11762;59.878;17.686;2023-03-16T06:41:50;4.80;;;1.40;;
23187;SDS011;11762;59.878;17.686;2023-03-16T06:44:17;3.77;;;1.23;;
23187;SDS011;11762;59.878;17.686;2023-03-16T06:46:45;4.07;;;1.43;;
23187;SDS011;11762;59.878;17.686;2023-03-16T06:49:12;4.47;;;1.57;;
23187;SDS011;11762;59.878;17.686;2023-03-16T06:51:39;5.47;;;1.53;;
23187;SDS011;11762;59.878;17.686;2023-03-16T06:54:07;10.40;;;1.47;;
23187;SDS011;11762;59.878;17.686;2023-03-16T06:56:35;14.67;;;1.57;;
23187;SDS011;11762;59.878;17.686;2023-03-16T06:59:02;11.57;;;1.60;;
23187;SDS011;11762;59.878;17.686;2023-03-16T07:01:30;6.80;;;1.50;;
23187;SDS011;11762;59.878;17.686;2023-03-16T07:03:57;8.13;;;1.67;;
23187;SDS011;11762;59.878;17.686;2023-03-16T07:06:24;4.90;;;1.40;;
23187;SDS011;11762;59.878;17.686;2023-03-16T07:08:51;6.37;;;1.37;;
23187;SDS011;11762;59.878;17.686;2023-03-16T07:11:18;9.67;;;1.97;;
23187;SDS011;11762;59.878;17.686;2023-03-16T07:13:46;7.27;;;1.50;;
23187;SDS011;11762;59.878;17.686;2023-03-16T07:16:13;10.97;;;1.53;;
23187;SDS011;11762;59.878;17.686;2023-03-16T07:18:40;11.43;;;2.13;;
23187;SDS011;11762;59.878;17.686;2023-03-16T07:21:09;4.00;;;1.63;;
23187;SDS011;11762;59.878;17.686;2023-03-16T07:23:36;12.43;;;2.00;;
23187;SDS011;11762;59.878;17.686;2023-03-16T07:26:03;4.07;;;1.57;;
23187;SDS011;11762;59.878;17.686;2023-03-16T07:28:32;5.33;;;2.00;;
23187;SDS011;11762;59.878;17.686;2023-03-16T07:31:00;13.23;;;1.93;;
23187;SDS011;11762;59.878;17.686;2023-03-16T07:33:28;12.27;;;1.93;;
23187;SDS011;11762;59.878;17.686;2023-03-16T07:35:56;5.17;;;1.70;;
23187;SDS011;11762;59.878;17.686;2023-03-16T07:38:23;6.53;;;1.87;;
23187;SDS011;11762;59.878;17.686;2023-03-16T07:40:50;10.07;;;1.60;;
23187;SDS011;11762;59.878;17.686;2023-03-16T07:43:17;10.63;;;1.93;;
23187;SDS011;11762;59.878;17.686;2023-03-16T07:45:46;10.90;;;1.90;;
23187;SDS011;11762;59.878;17.686;2023-03-16T07:48:15;12.77;;;3.03;;
23187;SDS011;11762;59.878;17.686;2023-03-16T07:50:42;8.67;;;2.20;;
23187;SDS011;11762;59.878;17.686;2023-03-16T07:53:10;12.93;;;2.33;;
23187;SDS011;11762;59.878;17.686;2023-03-16T07:55:38;12.17;;;1.80;;
23187;SDS011;11762;59.878;17.686;2023-03-16T07:58:05;11.77;;;1.83;;
23187;SDS011;11762;59.878;17.686;2023-03-16T08:00:34;17.57;;;2.20;;
23187;SDS011;11762;59.878;17.686;2023-03-16T08:03:01;22.73;;;1.93;;
23187;SDS011;11762;59.878;17.686;2023-03-16T08:05:30;8.63;;;1.67;;
23187;SDS011;11762;59.878;17.686;2023-03-16T08:07:57;11.87;;;2.00;;
23187;SDS011;11762;59.878;17.686;2023-03-16T08:10:25;8.37;;;1.80;;
23187;SDS011;11762;59.878;17.686;2023-03-16T08:12:52;12.97;;;2.30;;
23187;SDS011;11762;59.878;17.686;2023-03-16T08:15:19;5.83;;;1.77;;
23187;SDS011;11762;59.878;17.686;2023-03-16T08:17:46;10.97;;;1.70;;
23187;SDS011;11762;59.878;17.686;2023-03-16T08:20:13;8.10;;;1.70;;
23187;SDS011;11762;59.878;17.686;2023-03-16T08:22:42;11.10;;;2.50;;
23187;SDS011;11762;59.878;17.686;2023-03-16T08:25:10;15.23;;;2.60;;
23187;SDS011;11762;59.878;17.686;2023-03-16T08:27:38;9.00;;;1.93;;
23187;SDS011;11762;59.878;17.686;2023-03-16T08:30:06;6.63;;;1.80;;
23187;SDS011;11762;59.878;17.686;2023-03-16T08:32:36;4.47;;;1.60;;
23187;SDS011;11762;59.878;17.686;2023-03-16T08:35:04;5.60;;;1.70;;
23187;SDS011;11762;59.878;17.686;2023-03-16T08:37:32;6.00;;;1.50;;
23187;SDS011;11762;59.878;17.686;2023-03-16T08:40:00;13.23;;;1.73;;
23187;SDS011;11762;59.878;17.686;2023-03-16T08:42:28;12.87;;;2.17;;
23187;SDS011;11762;59.878;17.686;2023-03-16T08:44:55;10.67;;;2.03;;
23187;SDS011;11762;59.878;17.686;2023-03-16T08:47:24;5.40;;;1.80;;
23187;SDS011;11762;59.878;17.686;2023-03-16T08:49:51;10.63;;;1.63;;
23187;SDS011;11762;59.878;17.686;2023-03-16T08:52:18;9.23;;;1.67;;
23187;SDS011;11762;59.878;17.686;2023-03-16T08:54:45;5.73;;;1.50;;
23187;SDS011;11762;59.878;17.686;2023-03-16T08:57:14;8.77;;;1.73;;
23187;SDS011;11762;59.878;17.686;2023-03-16T08:59:41;14.17;;;2.57;;
23187;SDS011;11762;59.878;17.686;2023-03-16T09:02:10;11.40;;;1.87;;
23187;SDS011;11762;59.878;17.686;2023-03-16T09:04:38;8.03;;;2.13;;
23187;SDS011;11762;59.878;17.686;2023-03-16T09:07:05;17.43;;;2.40;;
23187;SDS011;11762;59.878;17.686;2023-03-16T09:09:32;10.43;;;2.17;;
23187;SDS011;11762;59.878;17.686;2023-03-16T09:12:00;9.80;;;1.67;;
23187;SDS011;11762;59.878;17.686;2023-03-16T09:14:30;6.20;;;1.67;;
23187;SDS011;11762;59.878;17.686;2023-03-16T09:16:57;8.33;;;1.83;;
23187;SDS011;11762;59.878;17.686;2023-03-16T09:19:25;10.13;;;2.17;;
23187;SDS011;11762;59.878;17.686;2023-03-16T09:21:52;12.80;;;2.00;;
23187;SDS011;11762;59.878;17.686;2023-03-16T09:24:19;9.30;;;2.03;;
23187;SDS011;11762;59.878;17.686;2023-03-16T09:26:46;10.67;;;2.30;;
23187;SDS011;11762;59.878;17.686;2023-03-16T09:29:14;11.40;;;2.30;;
23187;SDS011;11762;59.878;17.686;2023-03-16T09:31:44;7.60;;;2.33;;
23187;SDS011;11762;59.878;17.686;2023-03-16T09:34:11;7.17;;;1.93;;
23187;SDS011;11762;59.878;17.686;2023-03-16T09:36:38;7.03;;;2.07;;
23187;SDS011;11762;59.878;17.686;2023-03-16T09:39:06;12.07;;;2.27;;
23187;SDS011;11762;59.878;17.686;2023-03-16T09:41:37;9.23;;;2.23;;
23187;SDS011;11762;59.878;17.686;2023-03-16T09:44:15;14.87;;;2.10;;
23187;SDS011;11762;59.878;17.686;2023-03-16T09:46:54;17.87;;;2.53;;
23187;SDS011;11762;59.878;17.686;2023-03-16T09:49:26;12.83;;;2.30;;
23187;SDS011;11762;59.878;17.686;2023-03-16T09:51:58;6.27;;;2.53;;
23187;SDS011;11762;59.878;17.686;2023-03-16T09:54:37;17.37;;;2.63;;
23187;SDS011;11762;59.878;17.686;2023-03-16T09:57:11;6.23;;;1.60;;
23187;SDS011;11762;59.878;17.686;2023-03-16T09:59:44;17.30;;;2.70;;
23187;SDS011;11762;59.878;17.686;2023-03-16T10:02:24;9.97;;;1.80;;
23187;SDS011;11762;59.878;17.686;2023-03-16T10:05:10;7.80;;;1.90;;
23187;SDS011;11762;59.878;17.686;2023-03-16T10:07:41;7.43;;;1.63;;
23187;SDS011;11762;59.878;17.686;2023-03-16T10:10:20;12.80;;;2.23;;
23187;SDS011;11762;59.878;17.686;2023-03-16T10:12:58;13.83;;;1.73;;
23187;SDS011;11762;59.878;17.686;2023-03-16T10:15:27;5.67;;;1.70;;
23187;SDS011;11762;59.878;17.686;2023-03-16T10:17:58;7.10;;;1.93;;
23187;SDS011;11762;59.878;17.686;2023-03-16T10:20:32;6.90;;;1.67;;
23187;SDS011;11762;59.878;17.686;2023-03-16T10:23:07;4.00;;;1.83;;
23187;SDS011;11762;59.878;17.686;2023-03-16T10:25:42;12.93;;;2.90;;
23187;SDS011;11762;59.878;17.686;2023-03-16T10:28:12;8.13;;;1.80;;
23187;SDS011;11762;59.878;17.686;2023-03-16T10:30:41;14.90;;;2.43;;
23187;SDS011;11762;59.878;17.686;2023-03-16T10:33:15;9.77;;;2.37;;
23187;SDS011;11762;59.878;17.686;2023-03-16T10:35:47;11.43;;;2.40;;
23187;SDS011;11762;59.878;17.686;2023-03-16T10:38:28;11.60;;;2.03;;
23187;SDS011;11762;59.878;17.686;2023-03-16T10:40:57;8.97;;;1.70;;
23187;SDS011;11762;59.878;17.686;2023-03-16T10:43:27;7.03;;;1.73;;
23187;SDS011;11762;59.878;17.686;2023-03-16T10:45:59;13.70;;;1.93;;
23187;SDS011;11762;59.878;17.686;2023-03-16T10:48:29;8.17;;;1.70;;
23187;SDS011;11762;59.878;17.686;2023-03-16T10:50:58;4.83;;;1.37;;
23187;SDS011;11762;59.878;17.686;2023-03-16T10:53:29;9.60;;;2.30;;
23187;SDS011;11762;59.878;17.686;2023-03-16T10:56:00;9.33;;;1.93;;
23187;SDS011;11762;59.878;17.686;2023-03-16T10:58:38;5.90;;;2.73;;
23187;SDS011;11762;59.878;17.686;2023-03-16T11:01:09;3.87;;;1.73;;
23187;SDS011;11762;59.878;17.686;2023-03-16T11:03:39;30.07;;;2.10;;
23187;SDS011;11762;59.878;17.686;2023-03-16T11:06:14;10.77;;;1.80;;
23187;SDS011;11762;59.878;17.686;2023-03-16T11:08:45;5.30;;;1.80;;
23187;SDS011;11762;59.878;17.686;2023-03-16T11:11:13;6.60;;;1.93;;
23187;SDS011;11762;59.878;17.686;2023-03-16T11:13:44;4.80;;;1.27;;
23187;SDS011;11762;59.878;17.686;2023-03-16T11:16:16;9.43;;;1.63;;
23187;SDS011;11762;59.878;17.686;2023-03-16T11:18:51;5.33;;;1.70;;
23187;SDS011;11762;59.878;17.686;2023-03-16T11:21:33;10.03;;;2.17;;
23187;SDS011;11762;59.878;17.686;2023-03-16T11:24:09;3.80;;;1.20;;
23187;SDS011;11762;59.878;17.686;2023-03-16T11:26:44;10.67;;;1.70;;
23187;SDS011;11762;59.878;17.686;2023-03-16T11:29:19;12.47;;;2.30;;
23187;SDS011;11762;59.878;17.686;2023-03-16T11:31:52;7.13;;;1.43;;
23187;SDS011;11762;59.878;17.686;2023-03-16T11:34:26;9.83;;;1.60;;
23187;SDS011;11762;59.878;17.686;2023-03-16T11:36:55;3.23;;;1.17;;
23187;SDS011;11762;59.878;17.686;2023-03-16T11:39:29;4.83;;;1.07;;
23187;SDS011;11762;59.878;17.686;2023-03-16T11:45:07;3.80;;;1.10;;
23187;SDS011;11762;59.878;17.686;2023-03-16T11:47:51;7.63;;;1.80;;
23187;SDS011;11762;59.878;17.686;2023-03-16T11:50:32;5.23;;;1.07;;
23187;SDS011;11762;59.878;17.686;2023-03-16T11:53:11;3.03;;;0.87;;
23187;SDS011;11762;59.878;17.686;2023-03-16T11:55:44;2.73;;;0.90;;
23187;SDS011;11762;59.878;17.686;2023-03-16T11:58:26;10.87;;;1.30;;
23187;SDS011;11762;59.878;17.686;2023-03-16T12:01:05;8.67;;;1.17;;
23187;SDS011;11762;59.878;17.686;2023-03-16T12:03:44;4.40;;;1.20;;
23187;SDS011;11762;59.878;17.686;2023-03-16T12:06:26;5.33;;;1.00;;
23187;SDS011;11762;59.878;17.686;2023-03-16T12:09:18;10.67;;;1.13;;
23187;SDS011;11762;59.878;17.686;2023-03-16T12:12:09;7.43;;;1.30;;
23187;SDS011;11762;59.878;17.686;2023-03-16T12:14:52;4.97;;;0.90;;
23187;SDS011;11762;59.878;17.686;2023-03-16T12:17:29;5.40;;;0.90;;
23187;SDS011;11762;59.878;17.686;2023-03-16T12:20:02;4.50;;;1.10;;
23187;SDS011;11762;59.878;17.686;2023-03-16T12:22:38;5.20;;;1.40;;
23187;SDS011;11762;59.878;17.686;2023-03-16T12:25:11;5.63;;;1.23;;
23187;SDS011;11762;59.878;17.686;2023-03-16T12:27:44;6.17;;;1.30;;
23187;SDS011;11762;59.878;17.686;2023-03-16T12:30:20;4.10;;;1.20;;
23187;SDS011;11762;59.878;17.686;2023-03-16T12:32:58;4.53;;;0.90;;
23187;SDS011;11762;59.878;17.686;2023-03-16T12:35:30;4.07;;;0.93;;
23187;SDS011;11762;59.878;17.686;2023-03-16T12:38:16;3.30;;;1.03;;
23187;SDS011;11762;59.878;17.686;2023-03-16T12:41:04;2.23;;;0.90;;
23187;SDS011;11762;59.878;17.686;2023-03-16T12:43:41;6.63;;;1.70;;
23187;SDS011;11762;59.878;17.686;2023-03-16T12:46:20;9.63;;;2.50;;
23187;SDS011;11762;59.878;17.686;2023-03-16T12:48:54;7.00;;;1.10;;
23187;SDS011;11762;59.878;17.686;2023-03-16T12:51:33;3.43;;;1.00;;
23187;SDS011;11762;59.878;17.686;2023-03-16T12:54:03;8.80;;;1.23;;
23187;SDS011;11762;59.878;17.686;2023-03-16T12:56:32;3.93;;;1.17;;
23187;SDS011;11762;59.878;17.686;2023-03-16T12:59:01;5.10;;;1.33;;
23187;SDS011;11762;59.878;17.686;2023-03-16T13:01:36;5.53;;;1.30;;
23187;SDS011;11762;59.878;17.686;2023-03-16T13:04:07;3.97;;;1.00;;
23187;SDS011;11762;59.878;17.686;2023-03-16T13:06:40;3.80;;;1.10;;
23187;SDS011;11762;59.878;17.686;2023-03-16T13:09:11;3.67;;;1.10;;
23187;SDS011;11762;59.878;17.686;2023-03-16T13:11:43;3.77;;;1.63;;
23187;SDS011;11762;59.878;17.686;2023-03-16T13:14:14;8.80;;;1.53;;
23187;SDS011;11762;59.878;17.686;2023-03-16T13:17:01;14.43;;;1.60;;
23187;SDS011;11762;59.878;17.686;2023-03-16T13:19:30;4.30;;;1.20;;
23187;SDS011;11762;59.878;17.686;2023-03-16T13:22:04;5.57;;;1.30;;
23187;SDS011;11762;59.878;17.686;2023-03-16T13:24:50;4.57;;;1.27;;
23187;SDS011;11762;59.878;17.686;2023-03-16T13:27:20;21.33;;;1.73;;
23187;SDS011;11762;59.878;17.686;2023-03-16T13:29:53;7.10;;;1.47;;
23187;SDS011;11762;59.878;17.686;2023-03-16T13:32:23;3.03;;;1.00;;
23187;SDS011;11762;59.878;17.686;2023-03-16T13:34:55;4.30;;;1.20;;
23187;SDS011;11762;59.878;17.686;2023-03-16T13:37:24;6.87;;;1.40;;
23187;SDS011;11762;59.878;17.686;2023-03-16T13:39:56;5.70;;;1.27;;
23187;SDS011;11762;59.878;17.686;2023-03-16T13:42:24;6.33;;;1.20;;
23187;SDS011;11762;59.878;17.686;2023-03-16T13:44:53;4.43;;;1.17;;
23187;SDS011;11762;59.878;17.686;2023-03-16T13:47:21;13.07;;;1.30;;
23187;SDS011;11762;59.878;17.686;2023-03-16T13:49:53;4.03;;;1.23;;
23187;SDS011;11762;59.878;17.686;2023-03-16T13:52:23;2.93;;;0.77;;
23187;SDS011;11762;59.878;17.686;2023-03-16T13:54:52;14.97;;;1.20;;
23187;SDS011;11762;59.878;17.686;2023-03-16T13:57:23;2.80;;;1.10;;
23187;SDS011;11762;59.878;17.686;2023-03-16T13:59:59;4.03;;;0.90;;
23187;SDS011;11762;59.878;17.686;2023-03-16T14:02:34;2.57;;;0.80;;
23187;SDS011;11762;59.878;17.686;2023-03-16T14:05:09;4.47;;;1.13;;
23187;SDS011;11762;59.878;17.686;2023-03-16T14:07:37;3.40;;;1.10;;
23187;SDS011;11762;59.878;17.686;2023-03-16T14:10:04;4.00;;;1.00;;
23187;SDS011;11762;59.878;17.686;2023-03-16T14:12:36;3.33;;;1.00;;
23187;SDS011;11762;59.878;17.686;2023-03-16T14:15:05;2.30;;;1.00;;
23187;SDS011;11762;59.878;17.686;2023-03-16T14:17:34;2.10;;;1.00;;
23187;SDS011;11762;59.878;17.686;2023-03-16T14:20:01;3.37;;;0.73;;
23187;SDS011;11762;59.878;17.686;2023-03-16T14:22:30;1.17;;;0.53;;
23187;SDS011;11762;59.878;17.686;2023-03-16T14:25:01;8.23;;;1.53;;
23187;SDS011;11762;59.878;17.686;2023-03-16T14:27:30;8.50;;;1.33;;
23187;SDS011;11762;59.878;17.686;2023-03-16T14:30:15;13.53;;;1.10;;
23187;SDS011;11762;59.878;17.686;2023-03-16T14:32:53;16.37;;;1.90;;
23187;SDS011;11762;59.878;17.686;2023-03-16T14:35:24;2.53;;;0.97;;
23187;SDS011;11762;59.878;17.686;2023-03-16T14:37:52;7.30;;;0.93;;
23187;SDS011;11762;59.878;17.686;2023-03-16T14:40:22;6.93;;;1.13;;
23187;SDS011;11762;59.878;17.686;2023-03-16T14:42:51;2.70;;;0.77;;
23187;SDS011;11762;59.878;17.686;2023-03-16T14:45:21;4.40;;;0.90;;
23187;SDS011;11762;59.878;17.686;2023-03-16T14:47:52;4.87;;;1.10;;
23187;SDS011;11762;59.878;17.686;2023-03-16T14:50:21;7.70;;;1.17;;
23187;SDS011;11762;59.878;17.686;2023-03-16T14:52:50;10.03;;;1.50;;
23187;SDS011;11762;59.878;17.686;2023-03-16T14:55:20;3.03;;;1.20;;
23187;SDS011;11762;59.878;17.686;2023-03-16T14:57:48;3.97;;;1.20;;
23187;SDS011;11762;59.878;17.686;2023-03-16T15:00:17;10.10;;;1.20;;
23187;SDS011;11762;59.878;17.686;2023-03-16T15:02:49;4.43;;;1.30;;
23187;SDS011;11762;59.878;17.686;2023-03-16T15:05:25;3.17;;;0.97;;
23187;SDS011;11762;59.878;17.686;2023-03-16T15:07:57;8.13;;;1.10;;
23187;SDS011;11762;59.878;17.686;2023-03-16T15:10:24;4.63;;;1.00;;
23187;SDS011;11762;59.878;17.686;2023-03-16T15:12:53;2.40;;;0.70;;
23187;SDS011;11762;59.878;17.686;2023-03-16T15:15:28;10.27;;;1.63;;
23187;SDS011;11762;59.878;17.686;2023-03-16T15:17:58;11.27;;;1.60;;
23187;SDS011;11762;59.878;17.686;2023-03-16T15:20:26;3.97;;;0.80;;
23187;SDS011;11762;59.878;17.686;2023-03-16T15:22:59;29.90;;;2.07;;
23187;SDS011;11762;59.878;17.686;2023-03-16T15:25:30;7.87;;;1.00;;
23187;SDS011;11762;59.878;17.686;2023-03-16T15:28:01;10.97;;;1.13;;
23187;SDS011;11762;59.878;17.686;2023-03-16T15:30:29;6.93;;;1.57;;
23187;SDS011;11762;59.878;17.686;2023-03-16T15:32:57;9.10;;;1.60;;
23187;SDS011;11762;59.878;17.686;2023-03-16T15:35:25;5.47;;;1.30;;
23187;SDS011;11762;59.878;17.686;2023-03-16T15:37:52;8.33;;;1.40;;
23187;SDS011;11762;59.878;17.686;2023-03-16T15:40:21;5.87;;;1.40;;
23187;SDS011;11762;59.878;17.686;2023-03-16T15:42:50;7.10;;;1.23;;
23187;SDS011;11762;59.878;17.686;2023-03-16T15:45:18;7.43;;;1.50;;
23187;SDS011;11762;59.878;17.686;2023-03-16T15:47:47;9.63;;;1.40;;
23187;SDS011;11762;59.878;17.686;2023-03-16T15:50:17;3.60;;;1.00;;
23187;SDS011;11762;59.878;17.686;2023-03-16T15:52:46;5.37;;;0.93;;
23187;SDS011;11762;59.878;17.686;2023-03-16T15:55:17;7.90;;;1.00;;
23187;SDS011;11762;59.878;17.686;2023-03-16T15:57:47;4.67;;;1.30;;
23187;SDS011;11762;59.878;17.686;2023-03-16T16:00:20;6.13;;;1.37;;
23187;SDS011;11762;59.878;17.686;2023-03-16T16:02:55;9.47;;;1.40;;
23187;SDS011;11762;59.878;17.686;2023-03-16T16:05:24;5.40;;;1.60;;
23187;SDS011;11762;59.878;17.686;2023-03-16T16:07:51;12.47;;;1.33;;
23187;SDS011;11762;59.878;17.686;2023-03-16T16:10:19;6.87;;;1.50;;
23187;SDS011;11762;59.878;17.686;2023-03-16T16:12:47;12.00;;;1.70;;
23187;SDS011;11762;59.878;17.686;2023-03-16T16:15:19;31.80;;;3.00;;
23187;SDS011;11762;59.878;17.686;2023-03-16T16:17:49;15.60;;;2.77;;
23187;SDS011;11762;59.878;17.686;2023-03-16T16:20:18;22.13;;;1.80;;
23187;SDS011;11762;59.878;17.686;2023-03-16T16:22:49;11.83;;;2.00;;
23187;SDS011;11762;59.878;17.686;2023-03-16T16:25:17;17.70;;;2.87;;
23187;SDS011;11762;59.878;17.686;2023-03-16T16:27:44;14.97;;;1.90;;
23187;SDS011;11762;59.878;17.686;2023-03-16T16:30:19;11.07;;;1.90;;
23187;SDS011;11762;59.878;17.686;2023-03-16T16:32:48;10.47;;;2.10;;
23187;SDS011;11762;59.878;17.686;2023-03-16T16:35:16;14.13;;;2.13;;
23187;SDS011;11762;59.878;17.686;2023-03-16T16:37:44;11.77;;;1.60;;
23187;SDS011;11762;59.878;17.686;2023-03-16T16:40:14;15.77;;;1.53;;
23187;SDS011;11762;59.878;17.686;2023-03-16T16:42:43;3.70;;;1.33;;
23187;SDS011;11762;59.878;17.686;2023-03-16T16:45:14;7.20;;;1.73;;
23187;SDS011;11762;59.878;17.686;2023-03-16T16:47:46;8.47;;;2.40;;
23187;SDS011;11762;59.878;17.686;2023-03-16T16:50:17;6.93;;;1.73;;
23187;SDS011;11762;59.878;17.686;2023-03-16T16:52:46;6.03;;;1.27;;
23187;SDS011;11762;59.878;17.686;2023-03-16T16:55:15;3.17;;;1.40;;
23187;SDS011;11762;59.878;17.686;2023-03-16T16:57:43;7.70;;;1.33;;
23187;SDS011;11762;59.878;17.686;2023-03-16T17:00:16;10.07;;;1.63;;
23187;SDS011;11762;59.878;17.686;2023-03-16T17:02:45;8.90;;;1.50;;
23187;SDS011;11762;59.878;17.686;2023-03-16T17:05:15;7.80;;;1.70;;
23187;SDS011;11762;59.878;17.686;2023-03-16T17:07:45;11.83;;;1.77;;
23187;SDS011;11762;59.878;17.686;2023-03-16T17:10:13;5.70;;;1.40;;
23187;SDS011;11762;59.878;17.686;2023-03-16T17:12:43;8.43;;;2.00;;
23187;SDS011;11762;59.878;17.686;2023-03-16T17:15:18;9.27;;;2.10;;
23187;SDS011;11762;59.878;17.686;2023-03-16T17:17:47;6.27;;;1.27;;
23187;SDS011;11762;59.878;17.686;2023-03-16T17:20:15;22.10;;;2.70;;
23187;SDS011;11762;59.878;17.686;2023-03-16T17:22:45;32.57;;;3.47;;
23187;SDS011;11762;59.878;17.686;2023-03-16T17:25:13;50.43;;;4.97;;
23187;SDS011;11762;59.878;17.686;2023-03-16T17:27:43;27.57;;;3.07;;
23187;SDS011;11762;59.878;17.686;2023-03-16T17:30:22;16.50;;;3.53;;
23187;SDS011;11762;59.878;17.686;2023-03-16T17:32:52;35.30;;;2.83;;
23187;SDS011;11762;59.878;17.686;2023-03-16T17:35:21;12.43;;;2.10;;
23187;SDS011;11762;59.878;17.686;2023-03-16T17:37:48;12.57;;;2.40;;
23187;SDS011;11762;59.878;17.686;2023-03-16T17:40:18;13.17;;;2.13;;
23187;SDS011;11762;59.878;17.686;2023-03-16T17:42:47;14.43;;;2.40;;
23187;SDS011;11762;59.878;17.686;2023-03-16T17:45:16;21.00;;;3.17;;
23187;SDS011;11762;59.878;17.686;2023-03-16T17:47:45;13.67;;;2.17;;
23187;SDS011;11762;59.878;17.686;2023-03-16T17:50:16;16.83;;;2.40;;
23187;SDS011;11762;59.878;17.686;2023-03-16T17:52:45;19.17;;;3.33;;
23187;SDS011;11762;59.878;17.686;2023-03-16T17:55:13;7.57;;;2.30;;
23187;SDS011;11762;59.878;17.686;2023-03-16T17:57:46;9.83;;;3.17;;
23187;SDS011;11762;59.878;17.686;2023-03-16T18:00:19;10.77;;;2.37;;
23187;SDS011;11762;59.878;17.686;2023-03-16T18:02:48;12.77;;;4.10;;
23187;SDS011;11762;59.878;17.686;2023-03-16T18:05:18;17.80;;;4.40;;
23187;SDS011;11762;59.878;17.686;2023-03-16T18:07:47;22.53;;;4.23;;
23187;SDS011;11762;59.878;17.686;2023-03-16T18:10:16;21.73;;;3.43;;
23187;SDS011;11762;59.878;17.686;2023-03-16T18:12:46;34.90;;;3.37;;
23187;SDS011;11762;59.878;17.686;2023-03-16T18:15:18;33.33;;;6.70;;
23187;SDS011;11762;59.878;17.686;2023-03-16T18:17:47;19.93;;;3.23;;
23187;SDS011;11762;59.878;17.686;2023-03-16T18:20:19;22.60;;;3.87;;
23187;SDS011;11762;59.878;17.686;2023-03-16T18:22:52;33.10;;;4.33;;
23187;SDS011;11762;59.878;17.686;2023-03-16T18:25:30;21.57;;;3.67;;
23187;SDS011;11762;59.878;17.686;2023-03-16T18:28:00;27.53;;;3.77;;
23187;SDS011;11762;59.878;17.686;2023-03-16T18:30:28;32.57;;;5.33;;
23187;SDS011;11762;59.878;17.686;2023-03-16T18:32:55;49.20;;;9.93;;
23187;SDS011;11762;59.878;17.686;2023-03-16T18:35:24;59.73;;;7.17;;
23187;SDS011;11762;59.878;17.686;2023-03-16T18:37:51;28.77;;;5.40;;
23187;SDS011;11762;59.878;17.686;2023-03-16T18:40:20;35.53;;;5.40;;
23187;SDS011;11762;59.878;17.686;2023-03-16T18:42:48;24.00;;;4.03;;
23187;SDS011;11762;59.878;17.686;2023-03-16T18:45:19;18.37;;;3.70;;
23187;SDS011;11762;59.878;17.686;2023-03-16T18:47:49;12.13;;;2.87;;
23187;SDS011;11762;59.878;17.686;2023-03-16T18:50:21;21.23;;;3.20;;
23187;SDS011;11762;59.878;17.686;2023-03-16T18:52:50;8.70;;;2.73;;
23187;SDS011;11762;59.878;17.686;2023-03-16T18:55:19;26.63;;;2.83;;
23187;SDS011;11762;59.878;17.686;2023-03-16T18:57:48;12.87;;;3.13;;
23187;SDS011;11762;59.878;17.686;2023-03-16T19:00:20;15.60;;;3.83;;
23187;SDS011;11762;59.878;17.686;2023-03-16T19:02:55;15.40;;;2.87;;
23187;SDS011;11762;59.878;17.686;2023-03-16T19:05:27;8.07;;;2.20;;
23187;SDS011;11762;59.878;17.686;2023-03-16T19:07:59;8.20;;;2.57;;
23187;SDS011;11762;59.878;17.686;2023-03-16T19:10:28;6.60;;;1.90;;
23187;SDS011;11762;59.878;17.686;2023-03-16T19:12:57;8.63;;;2.90;;
23187;SDS011;11762;59.878;17.686;2023-03-16T19:15:26;24.27;;;2.83;;
23187;SDS011;11762;59.878;17.686;2023-03-16T19:17:55;9.40;;;2.50;;
23187;SDS011;11762;59.878;17.686;2023-03-16T19:20:23;11.97;;;2.17;;
23187;SDS011;11762;59.878;17.686;2023-03-16T19:22:54;5.57;;;2.23;;
23187;SDS011;11762;59.878;17.686;2023-03-16T19:25:27;4.87;;;1.83;;
23187;SDS011;11762;59.878;17.686;2023-03-16T19:27:57;5.30;;;2.00;;
23187;SDS011;11762;59.878;17.686;2023-03-16T19:30:27;10.37;;;2.37;;
23187;SDS011;11762;59.878;17.686;2023-03-16T19:32:56;9.83;;;2.23;;
23187;SDS011;11762;59.878;17.686;2023-03-16T19:35:24;7.13;;;2.40;;
23187;SDS011;11762;59.878;17.686;2023-03-16T19:37:53;16.13;;;3.53;;
23187;SDS011;11762;59.878;17.686;2023-03-16T19:40:21;13.73;;;3.33;;
23187;SDS011;11762;59.878;17.686;2023-03-16T19:42:50;11.90;;;2.60;;
23187;SDS011;11762;59.878;17.686;2023-03-16T19:45:19;8.07;;;2.60;;
23187;SDS011;11762;59.878;17.686;2023-03-16T19:47:50;14.63;;;3.50;;
23187;SDS011;11762;59.878;17.686;2023-03-16T19:50:18;11.77;;;3.70;;
23187;SDS011;11762;59.878;17.686;2023-03-16T19:52:46;9.80;;;3.33;;
23187;SDS011;11762;59.878;17.686;2023-03-16T19:55:14;5.07;;;2.30;;
23187;SDS011;11762;59.878;17.686;2023-03-16T19:57:46;11.90;;;2.60;;
23187;SDS011;11762;59.878;17.686;2023-03-16T20:00:19;12.63;;;2.40;;
23187;SDS011;11762;59.878;17.686;2023-03-16T20:02:51;15.87;;;2.90;;
23187;SDS011;11762;59.878;17.686;2023-03-16T20:05:21;13.73;;;3.07;;
23187;SDS011;11762;59.878;17.686;2023-03-16T20:07:51;10.23;;;2.40;;
23187;SDS011;11762;59.878;17.686;2023-03-16T20:10:19;8.43;;;2.77;;
23187;SDS011;11762;59.878;17.686;2023-03-16T20:12:48;12.43;;;3.13;;
23187;SDS011;11762;59.878;17.686;2023-03-16T20:15:19;7.70;;;2.80;;
23187;SDS011;11762;59.878;17.686;2023-03-16T20:17:47;11.33;;;3.60;;
23187;SDS011;11762;59.878;17.686;2023-03-16T20:20:21;10.67;;;4.57;;
23187;SDS011;11762;59.878;17.686;2023-03-16T20:22:50;15.60;;;5.70;;
23187;SDS011;11762;59.878;17.686;2023-03-16T20:25:19;13.13;;;5.53;;
23187;SDS011;11762;59.878;17.686;2023-03-16T20:27:49;8.80;;;3.77;;
23187;SDS011;11762;59.878;17.686;2023-03-16T20:30:20;11.97;;;3.80;;
23187;SDS011;11762;59.878;17.686;2023-03-16T20:32:47;18.93;;;9.27;;